createdAt,value
2023-02-11T00:14:35.109Z,31.2
2023-02-11T00:30:09.446Z,26.2
2023-02-11T00:45:43.767Z,28
2023-02-11T01:01:18.327Z,28.3
2023-02-11T01:16:52.985Z,25.9
2023-02-11T01:32:27.564Z,22.3
2023-02-11T01:48:01.903Z,21.3
2023-02-11T02:03:36.406Z,22.6
2023-02-11T02:19:10.854Z,23.2
2023-02-11T02:34:45.175Z,29.1
2023-02-11T02:50:19.495Z,23.9
2023-02-11T03:05:54.183Z,24.6
2023-02-11T03:21:28.599Z,25.9
2023-02-11T03:37:02.947Z,28.8
2023-02-11T03:52:37.279Z,22.2
2023-02-11T04:08:11.612Z,21.9
2023-02-11T04:23:45.951Z,28.9
2023-02-11T04:39:20.300Z,23.9
2023-02-11T04:54:54.640Z,21.5
2023-02-11T05:10:28.994Z,21.7
2023-02-11T05:26:03.335Z,21.8
2023-02-11T05:41:37.432Z,22.4
2023-02-11T05:57:11.944Z,22.8
2023-02-11T06:12:46.308Z,20.3
2023-02-11T06:28:20.829Z,24.9
2023-02-11T06:43:55.408Z,23.9
2023-02-11T06:59:29.757Z,21.4
2023-02-11T07:15:04.103Z,24
2023-02-11T07:30:38.510Z,27.2
2023-02-11T07:46:12.872Z,23.3
2023-02-11T08:01:47.598Z,26.8
2023-02-11T08:17:22.093Z,23.9
2023-02-11T08:32:56.448Z,20.8
2023-02-11T08:48:30.829Z,20.5
2023-02-11T09:04:05.234Z,28.6
2023-02-11T09:19:39.684Z,31.4
2023-02-11T09:35:14.087Z,25.1
2023-02-11T09:50:48.687Z,21.3
2023-02-11T10:06:23.968Z,18.1
2023-02-11T10:21:58.366Z,19.4
2023-02-11T10:37:32.785Z,16.4
2023-02-11T10:53:07.216Z,17.9
2023-02-11T11:08:41.700Z,13.1
2023-02-11T11:24:16.458Z,14.9
2023-02-11T11:39:50.879Z,13.9
2023-02-11T11:55:25.304Z,12.3
2023-02-11T12:10:59.762Z,19.3
2023-02-11T12:26:34.236Z,11.8
2023-02-11T12:42:08.636Z,23.4
2023-02-11T12:57:43.060Z,13.7
2023-02-11T13:13:17.592Z,16
2023-02-11T13:28:51.810Z,12.3
2023-02-11T13:44:26.258Z,14.2
2023-02-11T14:00:00.684Z,14.3
2023-02-11T14:15:35.116Z,14.9
2023-02-11T14:31:10.032Z,13.6
2023-02-11T14:46:45.009Z,14.4
2023-02-11T15:02:19.622Z,13.7
2023-02-11T15:17:54.236Z,20.5
2023-02-11T15:33:28.727Z,18.5
2023-02-11T15:49:03.131Z,17.1
2023-02-11T16:04:37.668Z,17.9
2023-02-11T16:20:12.397Z,18.1
2023-02-11T16:35:46.791Z,22.7
2023-02-11T16:51:21.854Z,19.4
2023-02-11T17:06:58.929Z,17.4
2023-02-11T17:22:33.344Z,25
2023-02-11T17:38:07.735Z,12.9
2023-02-11T17:53:42.148Z,19.3
2023-02-11T18:09:16.552Z,13.1
2023-02-11T18:24:50.930Z,16.6
2023-02-11T18:40:25.328Z,11.8
2023-02-11T18:55:59.717Z,14.3
2023-02-11T19:11:34.104Z,17.7
2023-02-11T19:27:08.475Z,21.7
2023-02-11T19:42:42.847Z,15.7
2023-02-11T19:58:17.238Z,24.2
2023-02-11T20:13:51.620Z,20.5
2023-02-11T20:29:26.178Z,16.5
2023-02-11T20:45:00.713Z,18.5
2023-02-11T21:00:35.247Z,18.9
2023-02-11T21:16:09.910Z,15.9
2023-02-11T21:31:45.202Z,17.3
2023-02-11T21:47:19.994Z,18.5
2023-02-11T22:02:54.375Z,18.3
2023-02-11T22:18:28.731Z,20.1
2023-02-11T22:34:03.131Z,21.8
2023-02-11T22:49:37.520Z,25.9
2023-02-11T23:05:13.066Z,20
2023-02-11T23:20:47.455Z,26.3
2023-02-11T23:36:22.355Z,25.2
2023-02-11T23:51:56.760Z,20.8
